createdAt,value
2022-09-21T00:01:44.035Z,5.70
2022-09-21T00:04:12.823Z,4.70
2022-09-21T00:06:41.517Z,5.03
2022-09-21T00:09:10.199Z,4.87
2022-09-21T00:11:39.441Z,5.50
2022-09-21T00:14:12.633Z,5.20
2022-09-21T00:16:42.301Z,5.17
2022-09-21T00:19:11.186Z,5.20
2022-09-21T00:21:40.148Z,5.40
2022-09-21T00:24:09.136Z,5.23
2022-09-21T00:26:37.886Z,5.30
2022-09-21T00:29:08.535Z,5.67
2022-09-21T00:31:37.714Z,4.87
2022-09-21T00:34:08.076Z,5.53
2022-09-21T00:36:37.230Z,5.13
2022-09-21T00:39:06.036Z,5.17
2022-09-21T00:41:36.067Z,4.83
2022-09-21T00:44:32.431Z,5.50
2022-09-21T00:47:05.835Z,5.13
2022-09-21T00:49:35.382Z,5.60
2022-09-21T00:52:06.723Z,6.03
2022-09-21T00:54:40.176Z,7.23
2022-09-21T00:57:09.099Z,7.23
2022-09-21T00:59:41.031Z,9.73
2022-09-21T01:02:09.745Z,8.80
2022-09-21T01:04:40.445Z,8.53
2022-09-21T01:07:13.519Z,7.40
2022-09-21T01:09:43.881Z,7.97
2022-09-21T01:12:27.544Z,8.03
2022-09-21T01:15:11.701Z,9.07
2022-09-21T01:17:47.798Z,8.03
2022-09-21T01:20:49.013Z,7.77
2022-09-21T01:23:41.362Z,7.13
2022-09-21T01:26:22.279Z,8.23
2022-09-21T01:29:12.071Z,8.70
2022-09-21T01:31:45.188Z,9.07
2022-09-21T01:34:20.973Z,10.87
2022-09-21T01:36:50.477Z,9.43
2022-09-21T01:39:22.064Z,9.97
2022-09-21T01:41:53.441Z,9.33
2022-09-21T01:44:33.552Z,10.77
2022-09-21T01:47:04.162Z,12.20
2022-09-21T01:49:40.187Z,12.27
2022-09-21T01:52:13.125Z,9.37
2022-09-21T01:54:47.029Z,11.20
2022-09-21T01:57:24.396Z,10.10
2022-09-21T01:59:57.305Z,12.00
2022-09-21T02:02:32.601Z,11.73
2022-09-21T02:05:02.707Z,11.33
2022-09-21T02:07:31.968Z,10.03
2022-09-21T02:10:02.289Z,11.23
2022-09-21T02:12:33.368Z,10.40
2022-09-21T02:15:04.285Z,12.53
2022-09-21T02:17:43.996Z,10.47
2022-09-21T02:20:21.563Z,12.13
2022-09-21T02:23:04.166Z,10.73
2022-09-21T02:25:43.931Z,10.80
2022-09-21T02:28:22.636Z,11.23
2022-09-21T02:30:59.995Z,11.00
2022-09-21T02:33:33.454Z,11.20
2022-09-21T02:36:07.709Z,10.73
2022-09-21T02:38:40.750Z,11.87
2022-09-21T02:41:18.241Z,10.63
2022-09-21T02:43:52.509Z,10.40
2022-09-21T02:46:27.880Z,11.50
2022-09-21T02:49:00.023Z,10.23
2022-09-21T02:51:31.341Z,10.30
2022-09-21T02:54:02.662Z,10.20
2022-09-21T02:56:33.256Z,11.00
2022-09-21T02:59:06.931Z,13.20
2022-09-21T03:01:37.963Z,11.47
2022-09-21T03:04:06.670Z,12.63
2022-09-21T03:06:35.372Z,12.33
2022-09-21T03:09:04.207Z,13.20
2022-09-21T03:11:33.999Z,9.23
2022-09-21T03:14:05.572Z,12.77
2022-09-21T03:16:34.299Z,11.33
2022-09-21T03:19:05.359Z,10.57
2022-09-21T03:21:34.366Z,11.10
2022-09-21T03:24:03.353Z,9.97
2022-09-21T03:26:32.286Z,10.03
2022-09-21T03:29:01.414Z,8.37
2022-09-21T03:31:30.117Z,8.93
2022-09-21T03:33:58.812Z,7.83
2022-09-21T03:36:28.926Z,9.63
2022-09-21T03:38:57.666Z,8.50
2022-09-21T03:41:26.329Z,8.23
2022-09-21T03:43:55.231Z,7.73
2022-09-21T03:46:24.871Z,8.43
2022-09-21T03:48:53.819Z,8.23
2022-09-21T03:51:22.556Z,8.20
2022-09-21T03:53:53.026Z,7.80
2022-09-21T03:56:21.772Z,7.47
2022-09-21T03:58:50.736Z,7.80
2022-09-21T04:01:19.470Z,7.47
2022-09-21T04:03:48.229Z,8.93
2022-09-21T04:06:17.185Z,7.97
2022-09-21T04:08:45.900Z,7.03
2022-09-21T04:11:19.538Z,8.80
2022-09-21T04:13:52.463Z,8.27
2022-09-21T04:16:21.004Z,9.00
2022-09-21T04:18:50.376Z,9.47
2022-09-21T04:21:19.310Z,10.03
2022-09-21T04:23:48.030Z,9.23
2022-09-21T04:26:26.394Z,14.23
2022-09-21T04:28:56.390Z,10.67
2022-09-21T04:31:26.184Z,13.10
2022-09-21T04:33:57.004Z,16.67
2022-09-21T04:36:27.285Z,9.43
2022-09-21T04:38:56.013Z,13.23
2022-09-21T04:41:26.317Z,13.43
2022-09-21T04:43:55.237Z,9.27
2022-09-21T04:46:24.221Z,8.73
2022-09-21T04:48:52.938Z,12.57
2022-09-21T04:51:21.587Z,11.00
2022-09-21T04:53:50.374Z,9.30
2022-09-21T04:56:19.508Z,9.00
2022-09-21T04:58:49.791Z,7.60
2022-09-21T05:01:18.567Z,9.30
2022-09-21T05:03:47.345Z,12.00
2022-09-21T05:06:16.010Z,7.70
2022-09-21T05:09:02.333Z,9.07
2022-09-21T05:11:31.054Z,9.37
2022-09-21T05:14:01.068Z,7.60
2022-09-21T05:16:29.747Z,8.70
2022-09-21T05:18:58.524Z,7.90
2022-09-21T05:21:27.580Z,7.27
2022-09-21T05:23:57.556Z,7.27
2022-09-21T05:26:26.684Z,7.53
2022-09-21T05:28:55.897Z,7.40
2022-09-21T05:31:42.603Z,6.57
2022-09-21T05:34:23.716Z,7.07
2022-09-21T05:37:00.301Z,7.67
2022-09-21T05:39:29.625Z,7.30
2022-09-21T05:41:58.916Z,10.13
2022-09-21T05:44:28.122Z,6.10
2022-09-21T05:47:03.635Z,6.40
2022-09-21T05:49:49.638Z,7.83
2022-09-21T05:52:24.101Z,6.00
2022-09-21T05:55:03.032Z,6.00
2022-09-21T05:57:45.950Z,6.10
2022-09-21T06:00:19.367Z,7.83
2022-09-21T06:03:06.427Z,6.17
2022-09-21T06:05:35.247Z,6.40
2022-09-21T06:08:03.945Z,6.17
2022-09-21T06:10:35.965Z,5.73
2022-09-21T06:13:04.995Z,5.20
2022-09-21T06:15:38.543Z,6.13
2022-09-21T06:18:12.211Z,4.70
2022-09-21T06:20:44.361Z,4.83
2022-09-21T06:23:15.115Z,5.77
2022-09-21T06:25:44.184Z,5.27
2022-09-21T06:28:13.963Z,4.87
2022-09-21T06:30:45.138Z,4.90
2022-09-21T06:33:20.769Z,5.13
2022-09-21T06:35:54.809Z,4.50
2022-09-21T06:38:24.441Z,4.40
2022-09-21T06:40:53.722Z,4.40
2022-09-21T06:43:22.933Z,3.70
2022-09-21T06:45:55.677Z,3.87
2022-09-21T06:48:27.030Z,3.37
2022-09-21T06:50:59.708Z,3.60
2022-09-21T06:53:29.812Z,2.90
2022-09-21T06:56:03.061Z,3.63
2022-09-21T06:58:34.298Z,3.13
2022-09-21T07:01:07.812Z,3.80
2022-09-21T07:03:38.439Z,3.27
2022-09-21T07:06:07.997Z,3.70
2022-09-21T07:11:27.684Z,3.73
2022-09-21T07:13:56.524Z,3.80
2022-09-21T07:16:25.392Z,3.90
2022-09-21T07:18:56.910Z,4.27
2022-09-21T07:21:25.687Z,3.10
2022-09-21T07:23:54.441Z,3.97
2022-09-21T07:26:23.743Z,3.67
2022-09-21T07:28:52.389Z,4.07
2022-09-21T07:31:21.146Z,3.50
2022-09-21T07:33:49.912Z,3.40
2022-09-21T07:36:20.158Z,3.13
2022-09-21T07:38:48.756Z,3.50
2022-09-21T07:41:17.440Z,3.70
2022-09-21T07:43:47.249Z,4.07
2022-09-21T07:46:16.903Z,3.87
2022-09-21T07:48:45.708Z,3.70
2022-09-21T07:51:16.791Z,3.70
2022-09-21T07:53:47.028Z,3.70
2022-09-21T07:56:17.889Z,3.70
2022-09-21T07:59:03.910Z,3.47
2022-09-21T08:01:33.897Z,3.50
2022-09-21T08:04:03.319Z,3.20
2022-09-21T08:06:33.664Z,3.60
2022-09-21T08:09:05.505Z,3.60
2022-09-21T08:11:34.980Z,3.33
2022-09-21T08:14:04.764Z,3.67
2022-09-21T08:16:34.211Z,4.50
2022-09-21T08:19:03.306Z,4.40
2022-09-21T08:21:32.481Z,3.80
2022-09-21T08:24:01.242Z,3.83
2022-09-21T08:26:31.665Z,4.03
2022-09-21T08:29:00.461Z,3.80
2022-09-21T08:31:29.833Z,4.10
2022-09-21T08:33:58.896Z,3.80
2022-09-21T08:36:27.568Z,4.30
2022-09-21T08:38:57.088Z,4.60
2022-09-21T08:41:43.736Z,4.30
2022-09-21T08:44:15.951Z,5.07
2022-09-21T08:46:47.322Z,4.97
2022-09-21T08:49:20.687Z,4.70
2022-09-21T08:51:54.273Z,5.17
2022-09-21T08:54:30.618Z,4.93
2022-09-21T08:57:05.285Z,5.07
2022-09-21T08:59:35.498Z,5.40
2022-09-21T09:02:21.805Z,4.70
2022-09-21T09:05:01.556Z,4.87
2022-09-21T09:07:46.571Z,4.90
2022-09-21T09:10:30.842Z,5.40
2022-09-21T09:13:20.984Z,5.43
2022-09-21T09:16:08.696Z,4.90
2022-09-21T09:18:45.264Z,5.10
2022-09-21T09:21:27.534Z,5.40
2022-09-21T09:24:04.407Z,5.23
2022-09-21T09:26:42.861Z,5.50
2022-09-21T09:29:22.303Z,5.67
2022-09-21T09:31:54.929Z,5.60
2022-09-21T09:34:27.079Z,5.83
2022-09-21T09:37:00.558Z,6.10
2022-09-21T09:39:31.961Z,6.60
2022-09-21T09:42:24.320Z,5.63
2022-09-21T09:45:26.089Z,6.53
2022-09-21T09:48:12.116Z,5.53
2022-09-21T09:50:43.126Z,7.07
2022-09-21T09:53:14.535Z,5.93
2022-09-21T09:55:46.531Z,7.27
2022-09-21T09:58:20.743Z,7.37
2022-09-21T10:00:54.167Z,6.83
2022-09-21T10:03:25.213Z,7.50
2022-09-21T10:05:55.300Z,7.10
2022-09-21T10:08:42.283Z,7.23
2022-09-21T10:11:11.808Z,6.20
2022-09-21T10:13:41.744Z,6.70
2022-09-21T10:16:16.935Z,7.03
2022-09-21T10:18:51.072Z,6.90
2022-09-21T10:21:22.632Z,6.97
2022-09-21T10:23:53.138Z,6.60
2022-09-21T10:26:23.346Z,6.90
2022-09-21T10:28:58.452Z,5.97
2022-09-21T10:31:30.284Z,6.10
2022-09-21T10:34:13.452Z,13.07
2022-09-21T10:36:43.216Z,6.87
2022-09-21T10:39:24.458Z,6.40
2022-09-21T10:41:56.228Z,6.50
2022-09-21T10:44:28.176Z,6.67
2022-09-21T10:47:06.170Z,6.60
2022-09-21T10:49:35.544Z,7.07
2022-09-21T10:52:04.531Z,5.45
2022-09-21T10:54:35.221Z,5.10
2022-09-21T10:57:08.709Z,5.95
2022-09-21T10:59:38.715Z,6.28
2022-09-21T11:02:29.752Z,5.10
2022-09-21T11:05:02.212Z,5.60
2022-09-21T11:07:34.984Z,4.55
2022-09-21T11:10:11.776Z,4.80
2022-09-21T11:12:50.367Z,4.10
2022-09-21T11:15:41.924Z,4.65
2022-09-21T11:18:19.795Z,5.15
2022-09-21T11:20:52.651Z,5.30
2022-09-21T11:23:39.972Z,6.97
2022-09-21T11:26:16.221Z,7.72
2022-09-21T11:28:51.342Z,6.78
2022-09-21T11:31:41.222Z,6.07
2022-09-21T11:34:33.940Z,5.47
2022-09-21T11:37:11.709Z,4.50
2022-09-21T11:39:57.885Z,3.30
2022-09-21T11:42:43.496Z,3.40
2022-09-21T11:45:26.848Z,3.22
2022-09-21T11:48:05.674Z,2.72
2022-09-21T11:50:57.903Z,3.20
2022-09-21T11:54:03.795Z,2.30
2022-09-21T11:56:41.187Z,2.20
2022-09-21T11:59:24.839Z,2.20
2022-09-21T12:02:18.049Z,2.08
2022-09-21T12:04:51.524Z,1.60
2022-09-21T12:07:38.168Z,1.70
2022-09-21T12:10:40.120Z,2.10
2022-09-21T12:13:18.775Z,1.70
2022-09-21T12:15:56.293Z,1.42
2022-09-21T12:18:32.667Z,1.80
2022-09-21T12:21:11.789Z,1.88
2022-09-21T12:23:46.630Z,1.70
2022-09-21T12:26:20.216Z,1.65
2022-09-21T12:28:53.928Z,1.50
2022-09-21T12:31:26.966Z,2.00
2022-09-21T12:33:58.410Z,1.52
2022-09-21T12:36:32.697Z,1.55
2022-09-21T12:39:07.518Z,1.50
2022-09-21T12:41:43.775Z,1.40
2022-09-21T12:44:24.310Z,1.70
2022-09-21T12:47:09.635Z,1.40
2022-09-21T12:49:43.718Z,1.30
2022-09-21T12:52:18.336Z,1.50
2022-09-21T12:54:54.411Z,1.75
2022-09-21T12:57:53.690Z,1.23
2022-09-21T13:00:23.321Z,1.20
2022-09-21T13:02:56.204Z,1.35
2022-09-21T13:05:36.939Z,1.40
2022-09-21T13:08:11.383Z,1.60
2022-09-21T13:10:49.235Z,1.40
2022-09-21T13:13:31.011Z,1.50
2022-09-21T13:16:00.677Z,1.50
2022-09-21T13:18:36.382Z,1.90
2022-09-21T13:21:17.840Z,2.88
2022-09-21T13:23:53.797Z,1.35
2022-09-21T13:26:34.823Z,1.40
2022-09-21T13:29:23.096Z,1.40
2022-09-21T13:31:58.907Z,1.20
2022-09-21T13:34:33.618Z,1.40
2022-09-21T13:37:35.847Z,1.35
2022-09-21T13:40:41.626Z,1.70
2022-09-21T13:43:57.513Z,1.27
2022-09-21T13:46:54.931Z,1.40
2022-09-21T13:49:40.302Z,1.33
2022-09-21T13:52:22.645Z,1.50
2022-09-21T13:54:54.954Z,1.30
2022-09-21T13:57:33.469Z,1.52
2022-09-21T14:00:34.423Z,1.40
2022-09-21T14:03:07.272Z,1.50
2022-09-21T14:05:41.633Z,1.58
2022-09-21T14:08:22.894Z,1.63
2022-09-21T14:10:55.324Z,1.75
2022-09-21T14:13:31.561Z,1.83
2022-09-21T14:16:28.965Z,1.73
2022-09-21T14:18:59.154Z,1.63
2022-09-21T14:21:28.372Z,1.60
2022-09-21T14:24:21.178Z,1.50
2022-09-21T14:27:03.645Z,1.40
2022-09-21T14:29:45.940Z,1.43
2022-09-21T14:32:23.599Z,1.50
2022-09-21T14:34:59.940Z,1.50
2022-09-21T14:37:33.343Z,1.50
2022-09-21T14:40:06.012Z,1.80
2022-09-21T14:42:35.018Z,1.70
2022-09-21T14:45:05.084Z,1.73
2022-09-21T14:47:56.985Z,1.83
2022-09-21T14:50:39.529Z,1.77
2022-09-21T14:53:35.738Z,2.00
2022-09-21T14:56:25.955Z,3.72
2022-09-21T14:59:15.620Z,2.00
2022-09-21T15:01:59.502Z,1.75
2022-09-21T15:04:33.248Z,1.50
2022-09-21T15:07:35.191Z,1.52
2022-09-21T15:10:40.075Z,1.40
2022-09-21T15:13:21.824Z,1.50
2022-09-21T15:16:03.550Z,1.27
2022-09-21T15:18:33.215Z,1.50
2022-09-21T15:21:04.311Z,1.40
2022-09-21T15:23:39.350Z,1.30
2022-09-21T15:26:11.782Z,1.23
2022-09-21T15:29:08.372Z,1.27
2022-09-21T15:31:39.909Z,1.23
2022-09-21T15:34:11.050Z,1.05
2022-09-21T15:36:41.858Z,1.10
2022-09-21T15:39:24.890Z,1.20
2022-09-21T15:42:18.048Z,1.20
2022-09-21T15:44:49.218Z,1.27
2022-09-21T15:47:21.407Z,1.27
2022-09-21T15:49:51.046Z,1.30
2022-09-21T15:52:27.981Z,1.25
2022-09-21T15:55:01.603Z,1.27
2022-09-21T15:57:38.750Z,1.48
2022-09-21T16:00:19.570Z,1.50
2022-09-21T16:03:04.810Z,1.47
2022-09-21T16:05:45.391Z,1.20
2022-09-21T16:08:33.236Z,1.20
2022-09-21T16:11:20.156Z,1.47
2022-09-21T16:14:21.302Z,1.37
2022-09-21T16:17:24.030Z,1.10
2022-09-21T16:20:24.345Z,1.20
2022-09-21T16:22:55.599Z,1.47
2022-09-21T16:25:32.820Z,1.50
2022-09-21T16:28:04.459Z,1.30
2022-09-21T16:30:51.275Z,1.40
2022-09-21T16:33:41.270Z,1.27
2022-09-21T16:36:38.973Z,1.13
2022-09-21T16:39:15.666Z,1.30
2022-09-21T16:42:00.224Z,1.30
2022-09-21T16:44:30.937Z,1.40
2022-09-21T16:47:01.267Z,1.40
2022-09-21T16:49:35.193Z,1.40
2022-09-21T16:52:04.876Z,1.23
2022-09-21T16:54:34.688Z,1.30
2022-09-21T16:57:04.641Z,1.37
2022-09-21T16:59:36.639Z,1.40
2022-09-21T17:02:06.113Z,1.40
2022-09-21T17:04:36.707Z,1.30
2022-09-21T17:07:06.226Z,1.33
2022-09-21T17:09:36.277Z,1.50
2022-09-21T17:12:07.062Z,1.20
2022-09-21T17:14:42.920Z,1.20
2022-09-21T17:17:17.242Z,1.33
2022-09-21T17:19:46.817Z,1.40
2022-09-21T17:22:17.694Z,1.30
2022-09-21T17:24:50.810Z,1.50
2022-09-21T17:27:22.947Z,1.30
2022-09-21T17:29:55.351Z,1.63
2022-09-21T17:32:25.475Z,2.83
2022-09-21T17:35:00.031Z,2.00
2022-09-21T17:37:29.568Z,11.63
2022-09-21T17:39:59.326Z,2.00
2022-09-21T17:42:29.799Z,1.90
2022-09-21T17:45:13.893Z,1.70
2022-09-21T17:47:43.183Z,2.10
2022-09-21T17:50:24.213Z,1.60
2022-09-21T17:53:07.298Z,1.67
2022-09-21T17:55:36.808Z,3.00
2022-09-21T17:58:19.534Z,2.83
2022-09-21T18:00:57.530Z,2.33
2022-09-21T18:03:29.040Z,2.37
2022-09-21T18:06:00.890Z,1.83
2022-09-21T18:08:31.448Z,1.70
2022-09-21T18:11:07.949Z,1.90
2022-09-21T18:13:48.905Z,2.63
2022-09-21T18:16:28.366Z,3.23
2022-09-21T18:19:07.608Z,4.33
2022-09-21T18:21:41.931Z,4.90
2022-09-21T18:24:22.201Z,5.50
2022-09-21T18:26:52.777Z,4.80
2022-09-21T18:29:40.672Z,5.17
2022-09-21T18:32:39.691Z,4.90
2022-09-21T18:35:16.938Z,4.67
2022-09-21T18:38:03.569Z,5.70
2022-09-21T18:40:40.253Z,4.70
2022-09-21T18:43:22.749Z,4.90
2022-09-21T18:46:01.958Z,5.03
2022-09-21T18:48:51.027Z,5.77
2022-09-21T18:51:28.756Z,5.10
2022-09-21T18:53:58.615Z,5.67
2022-09-21T18:56:32.324Z,5.90
2022-09-21T18:59:02.231Z,6.03
2022-09-21T19:01:34.093Z,6.10
2022-09-21T19:04:05.290Z,6.30
2022-09-21T19:06:42.083Z,6.60
2022-09-21T19:09:22.130Z,6.83
2022-09-21T19:11:58.812Z,6.10
2022-09-21T19:14:37.863Z,6.73
2022-09-21T19:17:23.596Z,7.13
2022-09-21T19:20:06.465Z,7.07
2022-09-21T19:22:45.576Z,7.03
2022-09-21T19:25:22.014Z,6.90
2022-09-21T19:27:55.943Z,6.30
2022-09-21T19:30:25.016Z,4.90
2022-09-21T19:32:56.685Z,4.60
2022-09-21T19:35:29.193Z,4.03
2022-09-21T19:37:59.720Z,4.47
2022-09-21T19:40:30.643Z,4.97
2022-09-21T19:43:21.248Z,5.33
2022-09-21T19:46:06.793Z,5.30
2022-09-21T19:48:43.563Z,4.73
2022-09-21T19:51:19.957Z,4.97
2022-09-21T19:54:13.149Z,5.17
2022-09-21T19:57:05.818Z,4.30
2022-09-21T19:59:44.314Z,5.00
2022-09-21T20:02:15.842Z,5.53
2022-09-21T20:04:50.922Z,4.97
2022-09-21T20:07:28.831Z,4.43
2022-09-21T20:10:15.396Z,3.60
2022-09-21T20:12:51.569Z,3.40
2022-09-21T20:15:28.779Z,3.67
2022-09-21T20:18:06.382Z,3.70
2022-09-21T20:20:35.477Z,3.60
2022-09-21T20:23:06.611Z,3.70
2022-09-21T20:25:38.998Z,4.20
2022-09-21T20:28:09.398Z,4.47
2022-09-21T20:30:40.166Z,3.87
2022-09-21T20:33:14.473Z,4.07
2022-09-21T20:35:44.198Z,3.80
2022-09-21T20:38:15.041Z,3.87
2022-09-21T20:40:44.550Z,4.13
2022-09-21T20:43:15.655Z,4.50
2022-09-21T20:45:48.281Z,3.83
2022-09-21T20:48:17.116Z,3.63
2022-09-21T20:50:48.178Z,3.40
2022-09-21T20:53:19.260Z,3.27
2022-09-21T20:55:55.248Z,3.50
2022-09-21T20:58:24.778Z,3.60
2022-09-21T21:00:58.841Z,3.47
2022-09-21T21:03:27.955Z,3.47
2022-09-21T21:06:08.362Z,3.77
2022-09-21T21:08:38.811Z,3.83
2022-09-21T21:11:07.626Z,4.30
2022-09-21T21:13:36.289Z,3.80
2022-09-21T21:16:11.087Z,4.50
2022-09-21T21:18:41.510Z,3.87
2022-09-21T21:21:10.457Z,4.13
2022-09-21T21:23:54.345Z,5.30
2022-09-21T21:26:38.112Z,6.30
2022-09-21T21:29:11.966Z,6.40
2022-09-21T21:31:41.250Z,6.50
2022-09-21T21:34:10.064Z,7.47
2022-09-21T21:36:38.892Z,7.97
2022-09-21T21:39:09.381Z,7.93
2022-09-21T21:41:38.048Z,8.23
2022-09-21T21:44:06.781Z,8.47
2022-09-21T21:46:35.727Z,8.17
2022-09-21T21:49:04.645Z,8.27
2022-09-21T21:51:33.601Z,8.50
2022-09-21T21:54:02.549Z,8.37
2022-09-21T21:56:32.744Z,7.47
2022-09-21T21:59:01.387Z,7.10
2022-09-21T22:01:31.354Z,7.67
2022-09-21T22:04:01.527Z,7.43
2022-09-21T22:06:32.337Z,7.53
2022-09-21T22:09:01.504Z,6.33
2022-09-21T22:11:32.515Z,6.57
2022-09-21T22:14:02.504Z,7.33
2022-09-21T22:16:33.365Z,6.93
2022-09-21T22:19:05.368Z,6.63
2022-09-21T22:21:35.454Z,6.73
2022-09-21T22:24:06.145Z,6.87
2022-09-21T22:26:38.848Z,7.47
2022-09-21T22:29:09.627Z,7.77
2022-09-21T22:31:40.280Z,6.97
2022-09-21T22:34:10.056Z,6.80
2022-09-21T22:36:39.826Z,7.00
2022-09-21T22:39:09.513Z,7.17
2022-09-21T22:41:40.902Z,7.50
2022-09-21T22:44:10.594Z,6.83
2022-09-21T22:46:39.878Z,6.83
2022-09-21T22:49:09.007Z,6.80
2022-09-21T22:51:38.116Z,7.50
2022-09-21T22:54:07.245Z,6.73
2022-09-21T22:56:36.728Z,6.43
2022-09-21T22:59:07.239Z,6.83
2022-09-21T23:01:37.812Z,6.70
2022-09-21T23:04:08.366Z,6.30
2022-09-21T23:06:40.672Z,6.07
2022-09-21T23:09:13.290Z,6.27
2022-09-21T23:11:44.447Z,6.40
2022-09-21T23:14:15.424Z,5.90
2022-09-21T23:16:44.511Z,5.93
2022-09-21T23:19:16.634Z,5.70
2022-09-21T23:21:49.602Z,5.73
2022-09-21T23:24:19.025Z,5.70
2022-09-21T23:26:50.526Z,6.10
2022-09-21T23:29:21.007Z,6.20
2022-09-21T23:31:49.696Z,5.67
2022-09-21T23:34:18.628Z,6.00
2022-09-21T23:36:47.462Z,5.73
2022-09-21T23:39:17.089Z,6.33
2022-09-21T23:41:46.169Z,5.80
2022-09-21T23:44:15.031Z,5.40
2022-09-21T23:46:45.243Z,5.40
2022-09-21T23:49:13.916Z,5.60
2022-09-21T23:51:42.933Z,5.53
2022-09-21T23:54:11.578Z,5.17
2022-09-21T23:56:40.231Z,5.30
2022-09-21T23:59:08.873Z,5.50
